sensor_id;sensor_type;location;lat;lon;timestamp;P1;durP1;ratioP1;P2;durP2;ratioP2
42094;SDS011;27753;55.724;37.612;2024-03-08T00:01:12;10.40;;;5.57;;
42094;SDS011;27753;55.724;37.612;2024-03-08T00:03:38;11.75;;;5.63;;
42094;SDS011;27753;55.724;37.612;2024-03-08T00:06:05;6.80;;;4.75;;
42094;SDS011;27753;55.724;37.612;2024-03-08T00:08:31;5.95;;;4.57;;
42094;SDS011;27753;55.724;37.612;2024-03-08T00:11:01;8.55;;;5.22;;
42094;SDS011;27753;55.724;37.612;2024-03-08T00:13:27;8.43;;;5.93;;
42094;SDS011;27753;55.724;37.612;2024-03-08T00:15:53;7.15;;;4.50;;
42094;SDS011;27753;55.724;37.612;2024-03-08T00:18:19;8.18;;;5.13;;
42094;SDS011;27753;55.724;37.612;2024-03-08T00:20:45;9.38;;;5.70;;
42094;SDS011;27753;55.724;37.612;2024-03-08T00:23:10;9.52;;;5.68;;
42094;SDS011;27753;55.724;37.612;2024-03-08T00:25:37;8.80;;;5.13;;
42094;SDS011;27753;55.724;37.612;2024-03-08T00:28:04;7.15;;;4.68;;
42094;SDS011;27753;55.724;37.612;2024-03-08T00:30:31;8.13;;;4.97;;
42094;SDS011;27753;55.724;37.612;2024-03-08T00:32:57;7.33;;;5.07;;
42094;SDS011;27753;55.724;37.612;2024-03-08T00:35:23;7.75;;;4.47;;
42094;SDS011;27753;55.724;37.612;2024-03-08T00:37:49;12.38;;;4.47;;
42094;SDS011;27753;55.724;37.612;2024-03-08T00:40:15;10.45;;;5.03;;
42094;SDS011;27753;55.724;37.612;2024-03-08T00:42:41;8.43;;;4.90;;
42094;SDS011;27753;55.724;37.612;2024-03-08T00:45:09;7.75;;;4.32;;
42094;SDS011;27753;55.724;37.612;2024-03-08T00:47:35;6.18;;;3.78;;
42094;SDS011;27753;55.724;37.612;2024-03-08T00:50:01;8.82;;;4.53;;
42094;SDS011;27753;55.724;37.612;2024-03-08T00:54:54;6.93;;;3.90;;
42094;SDS011;27753;55.724;37.612;2024-03-08T00:57:20;7.45;;;3.60;;
42094;SDS011;27753;55.724;37.612;2024-03-08T00:59:47;15.73;;;4.43;;
42094;SDS011;27753;55.724;37.612;2024-03-08T01:02:13;6.53;;;3.42;;
42094;SDS011;27753;55.724;37.612;2024-03-08T01:04:39;6.07;;;4.00;;
42094;SDS011;27753;55.724;37.612;2024-03-08T01:07:05;8.30;;;4.03;;
42094;SDS011;27753;55.724;37.612;2024-03-08T01:09:31;9.15;;;4.50;;
42094;SDS011;27753;55.724;37.612;2024-03-08T01:11:57;6.55;;;3.80;;
42094;SDS011;27753;55.724;37.612;2024-03-08T01:14:23;7.33;;;4.27;;
42094;SDS011;27753;55.724;37.612;2024-03-08T01:16:53;6.90;;;4.20;;
42094;SDS011;27753;55.724;37.612;2024-03-08T01:19:20;4.63;;;3.10;;
42094;SDS011;27753;55.724;37.612;2024-03-08T01:21:46;6.47;;;3.60;;
42094;SDS011;27753;55.724;37.612;2024-03-08T01:24:12;6.68;;;4.15;;
42094;SDS011;27753;55.724;37.612;2024-03-08T01:26:37;6.53;;;3.90;;
42094;SDS011;27753;55.724;37.612;2024-03-08T01:29:04;5.68;;;3.60;;
42094;SDS011;27753;55.724;37.612;2024-03-08T01:31:30;9.10;;;4.25;;
42094;SDS011;27753;55.724;37.612;2024-03-08T01:33:56;5.95;;;4.03;;
42094;SDS011;27753;55.724;37.612;2024-03-08T01:36:22;7.85;;;3.95;;
42094;SDS011;27753;55.724;37.612;2024-03-08T01:38:49;7.45;;;4.90;;
42094;SDS011;27753;55.724;37.612;2024-03-08T01:41:15;10.10;;;4.43;;
42094;SDS011;27753;55.724;37.612;2024-03-08T01:46:10;6.00;;;4.10;;
42094;SDS011;27753;55.724;37.612;2024-03-08T01:48:40;7.50;;;4.18;;
42094;SDS011;27753;55.724;37.612;2024-03-08T01:51:06;6.40;;;3.83;;
42094;SDS011;27753;55.724;37.612;2024-03-08T01:53:33;6.57;;;3.90;;
42094;SDS011;27753;55.724;37.612;2024-03-08T01:56:00;5.88;;;3.88;;
42094;SDS011;27753;55.724;37.612;2024-03-08T01:58:28;6.20;;;4.38;;
42094;SDS011;27753;55.724;37.612;2024-03-08T02:00:56;7.63;;;4.45;;
42094;SDS011;27753;55.724;37.612;2024-03-08T02:03:23;9.20;;;4.25;;
42094;SDS011;27753;55.724;37.612;2024-03-08T02:05:49;8.68;;;4.43;;
42094;SDS011;27753;55.724;37.612;2024-03-08T02:08:16;6.43;;;3.85;;
42094;SDS011;27753;55.724;37.612;2024-03-08T02:10:44;8.68;;;3.83;;
42094;SDS011;27753;55.724;37.612;2024-03-08T02:13:10;9.05;;;4.10;;
42094;SDS011;27753;55.724;37.612;2024-03-08T02:15:55;7.88;;;4.70;;
42094;SDS011;27753;55.724;37.612;2024-03-08T02:18:26;16.00;;;4.80;;
42094;SDS011;27753;55.724;37.612;2024-03-08T02:20:53;5.53;;;4.03;;
42094;SDS011;27753;55.724;37.612;2024-03-08T02:23:22;9.10;;;5.05;;
42094;SDS011;27753;55.724;37.612;2024-03-08T02:25:50;7.50;;;4.57;;
42094;SDS011;27753;55.724;37.612;2024-03-08T02:28:16;11.63;;;4.78;;
42094;SDS011;27753;55.724;37.612;2024-03-08T02:30:47;7.28;;;5.35;;
42094;SDS011;27753;55.724;37.612;2024-03-08T02:33:19;8.00;;;4.75;;
42094;SDS011;27753;55.724;37.612;2024-03-08T02:35:46;10.52;;;5.10;;
42094;SDS011;27753;55.724;37.612;2024-03-08T02:38:12;8.27;;;5.65;;
42094;SDS011;27753;55.724;37.612;2024-03-08T02:40:42;8.25;;;5.05;;
42094;SDS011;27753;55.724;37.612;2024-03-08T02:43:11;7.25;;;4.45;;
42094;SDS011;27753;55.724;37.612;2024-03-08T02:45:39;5.78;;;3.88;;
42094;SDS011;27753;55.724;37.612;2024-03-08T02:50:33;7.72;;;5.15;;
42094;SDS011;27753;55.724;37.612;2024-03-08T02:53:00;11.40;;;5.45;;
42094;SDS011;27753;55.724;37.612;2024-03-08T02:55:26;6.15;;;4.18;;
42094;SDS011;27753;55.724;37.612;2024-03-08T02:57:52;7.97;;;4.57;;
42094;SDS011;27753;55.724;37.612;2024-03-08T03:00:21;6.60;;;4.15;;
42094;SDS011;27753;55.724;37.612;2024-03-08T03:02:51;7.07;;;5.03;;
42094;SDS011;27753;55.724;37.612;2024-03-08T03:05:21;8.57;;;5.15;;
42094;SDS011;27753;55.724;37.612;2024-03-08T03:07:48;7.80;;;4.30;;
42094;SDS011;27753;55.724;37.612;2024-03-08T03:10:14;9.75;;;4.80;;
42094;SDS011;27753;55.724;37.612;2024-03-08T03:12:43;4.85;;;3.28;;
42094;SDS011;27753;55.724;37.612;2024-03-08T03:15:11;8.63;;;5.10;;
42094;SDS011;27753;55.724;37.612;2024-03-08T03:17:38;6.25;;;4.32;;
42094;SDS011;27753;55.724;37.612;2024-03-08T03:20:06;8.20;;;4.93;;
42094;SDS011;27753;55.724;37.612;2024-03-08T03:22:38;6.60;;;4.85;;
42094;SDS011;27753;55.724;37.612;2024-03-08T03:25:04;9.10;;;4.88;;
42094;SDS011;27753;55.724;37.612;2024-03-08T03:29:57;9.20;;;4.82;;
42094;SDS011;27753;55.724;37.612;2024-03-08T03:32:23;8.70;;;5.32;;
42094;SDS011;27753;55.724;37.612;2024-03-08T03:34:49;9.73;;;5.10;;
42094;SDS011;27753;55.724;37.612;2024-03-08T03:37:18;7.55;;;5.47;;
42094;SDS011;27753;55.724;37.612;2024-03-08T03:39:44;10.57;;;4.97;;
42094;SDS011;27753;55.724;37.612;2024-03-08T03:42:17;6.88;;;5.05;;
42094;SDS011;27753;55.724;37.612;2024-03-08T03:44:47;11.40;;;6.18;;
42094;SDS011;27753;55.724;37.612;2024-03-08T03:47:14;8.00;;;5.13;;
42094;SDS011;27753;55.724;37.612;2024-03-08T03:49:41;8.70;;;5.18;;
42094;SDS011;27753;55.724;37.612;2024-03-08T03:52:07;11.82;;;5.45;;
42094;SDS011;27753;55.724;37.612;2024-03-08T03:54:34;10.03;;;5.50;;
42094;SDS011;27753;55.724;37.612;2024-03-08T03:57:00;9.88;;;6.20;;
42094;SDS011;27753;55.724;37.612;2024-03-08T03:59:28;9.27;;;6.18;;
42094;SDS011;27753;55.724;37.612;2024-03-08T04:01:55;7.63;;;4.90;;
42094;SDS011;27753;55.724;37.612;2024-03-08T04:04:21;13.27;;;5.93;;
42094;SDS011;27753;55.724;37.612;2024-03-08T04:06:47;9.52;;;5.85;;
42094;SDS011;27753;55.724;37.612;2024-03-08T04:09:13;11.32;;;5.47;;
42094;SDS011;27753;55.724;37.612;2024-03-08T04:11:39;11.52;;;6.25;;
42094;SDS011;27753;55.724;37.612;2024-03-08T04:14:05;9.77;;;7.18;;
42094;SDS011;27753;55.724;37.612;2024-03-08T04:16:31;10.30;;;7.15;;
42094;SDS011;27753;55.724;37.612;2024-03-08T04:18:57;10.85;;;5.50;;
42094;SDS011;27753;55.724;37.612;2024-03-08T04:21:24;14.35;;;6.50;;
42094;SDS011;27753;55.724;37.612;2024-03-08T04:23:50;12.57;;;7.80;;
42094;SDS011;27753;55.724;37.612;2024-03-08T04:26:16;10.88;;;6.45;;
42094;SDS011;27753;55.724;37.612;2024-03-08T04:28:41;11.70;;;6.90;;
42094;SDS011;27753;55.724;37.612;2024-03-08T04:31:07;16.33;;;7.18;;
42094;SDS011;27753;55.724;37.612;2024-03-08T04:33:33;10.63;;;6.85;;
42094;SDS011;27753;55.724;37.612;2024-03-08T04:36:02;13.25;;;7.82;;
42094;SDS011;27753;55.724;37.612;2024-03-08T04:38:30;14.35;;;7.15;;
42094;SDS011;27753;55.724;37.612;2024-03-08T04:40:57;15.55;;;7.43;;
42094;SDS011;27753;55.724;37.612;2024-03-08T04:43:23;12.33;;;7.47;;
42094;SDS011;27753;55.724;37.612;2024-03-08T04:45:52;12.15;;;6.85;;
42094;SDS011;27753;55.724;37.612;2024-03-08T04:48:18;15.63;;;8.00;;
42094;SDS011;27753;55.724;37.612;2024-03-08T04:50:45;17.27;;;7.75;;
42094;SDS011;27753;55.724;37.612;2024-03-08T04:53:11;15.00;;;7.32;;
42094;SDS011;27753;55.724;37.612;2024-03-08T04:55:37;10.85;;;7.68;;
42094;SDS011;27753;55.724;37.612;2024-03-08T04:58:03;8.30;;;6.10;;
42094;SDS011;27753;55.724;37.612;2024-03-08T05:00:32;11.55;;;7.18;;
42094;SDS011;27753;55.724;37.612;2024-03-08T05:02:58;15.90;;;9.23;;
42094;SDS011;27753;55.724;37.612;2024-03-08T05:05:24;14.02;;;6.85;;
42094;SDS011;27753;55.724;37.612;2024-03-08T05:07:51;13.27;;;7.82;;
42094;SDS011;27753;55.724;37.612;2024-03-08T05:10:17;13.25;;;7.03;;
42094;SDS011;27753;55.724;37.612;2024-03-08T05:12:43;11.98;;;7.47;;
42094;SDS011;27753;55.724;37.612;2024-03-08T05:15:09;19.43;;;7.13;;
42094;SDS011;27753;55.724;37.612;2024-03-08T05:17:35;14.68;;;7.80;;
42094;SDS011;27753;55.724;37.612;2024-03-08T05:20:01;11.95;;;7.65;;
42094;SDS011;27753;55.724;37.612;2024-03-08T05:24:54;14.75;;;6.88;;
42094;SDS011;27753;55.724;37.612;2024-03-08T05:27:20;13.02;;;7.30;;
42094;SDS011;27753;55.724;37.612;2024-03-08T05:29:46;13.18;;;7.13;;
42094;SDS011;27753;55.724;37.612;2024-03-08T05:32:12;11.75;;;7.00;;
42094;SDS011;27753;55.724;37.612;2024-03-08T05:34:39;15.50;;;8.23;;
42094;SDS011;27753;55.724;37.612;2024-03-08T05:37:05;13.25;;;7.43;;
42094;SDS011;27753;55.724;37.612;2024-03-08T05:39:32;12.63;;;7.65;;
42094;SDS011;27753;55.724;37.612;2024-03-08T05:41:58;14.27;;;8.63;;
42094;SDS011;27753;55.724;37.612;2024-03-08T05:44:24;14.93;;;6.35;;
42094;SDS011;27753;55.724;37.612;2024-03-08T05:46:49;13.05;;;7.00;;
42094;SDS011;27753;55.724;37.612;2024-03-08T05:49:15;12.02;;;7.45;;
42094;SDS011;27753;55.724;37.612;2024-03-08T05:51:41;12.52;;;6.72;;
42094;SDS011;27753;55.724;37.612;2024-03-08T05:54:08;15.60;;;7.47;;
42094;SDS011;27753;55.724;37.612;2024-03-08T05:56:36;16.75;;;8.35;;
42094;SDS011;27753;55.724;37.612;2024-03-08T05:59:04;14.73;;;8.50;;
42094;SDS011;27753;55.724;37.612;2024-03-08T06:01:29;13.95;;;7.35;;
42094;SDS011;27753;55.724;37.612;2024-03-08T06:03:56;13.90;;;6.95;;
42094;SDS011;27753;55.724;37.612;2024-03-08T06:06:22;12.93;;;7.72;;
42094;SDS011;27753;55.724;37.612;2024-03-08T06:08:49;11.20;;;7.53;;
42094;SDS011;27753;55.724;37.612;2024-03-08T06:11:16;12.35;;;7.40;;
42094;SDS011;27753;55.724;37.612;2024-03-08T06:13:44;10.05;;;7.05;;
42094;SDS011;27753;55.724;37.612;2024-03-08T06:16:10;13.88;;;7.85;;
42094;SDS011;27753;55.724;37.612;2024-03-08T06:18:36;12.90;;;8.65;;
42094;SDS011;27753;55.724;37.612;2024-03-08T06:21:05;12.10;;;9.02;;
42094;SDS011;27753;55.724;37.612;2024-03-08T06:23:32;14.40;;;7.63;;
42094;SDS011;27753;55.724;37.612;2024-03-08T06:25:58;14.02;;;7.55;;
42094;SDS011;27753;55.724;37.612;2024-03-08T06:28:24;14.80;;;8.75;;
42094;SDS011;27753;55.724;37.612;2024-03-08T06:30:50;13.43;;;8.00;;
42094;SDS011;27753;55.724;37.612;2024-03-08T06:33:17;16.05;;;8.57;;
42094;SDS011;27753;55.724;37.612;2024-03-08T06:35:43;13.90;;;7.90;;
42094;SDS011;27753;55.724;37.612;2024-03-08T06:38:09;12.15;;;7.55;;
42094;SDS011;27753;55.724;37.612;2024-03-08T06:40:36;12.40;;;8.05;;
42094;SDS011;27753;55.724;37.612;2024-03-08T06:43:02;14.85;;;7.28;;
42094;SDS011;27753;55.724;37.612;2024-03-08T06:45:31;9.55;;;7.40;;
42094;SDS011;27753;55.724;37.612;2024-03-08T06:47:57;13.38;;;7.60;;
42094;SDS011;27753;55.724;37.612;2024-03-08T06:50:23;12.60;;;6.95;;
42094;SDS011;27753;55.724;37.612;2024-03-08T06:52:48;12.35;;;8.27;;
42094;SDS011;27753;55.724;37.612;2024-03-08T06:55:18;19.52;;;8.57;;
42094;SDS011;27753;55.724;37.612;2024-03-08T06:57:45;11.97;;;8.23;;
42094;SDS011;27753;55.724;37.612;2024-03-08T07:00:11;11.70;;;7.65;;
42094;SDS011;27753;55.724;37.612;2024-03-08T07:02:43;12.60;;;8.40;;
42094;SDS011;27753;55.724;37.612;2024-03-08T07:05:14;10.73;;;7.10;;
42094;SDS011;27753;55.724;37.612;2024-03-08T07:07:41;13.80;;;8.07;;
42094;SDS011;27753;55.724;37.612;2024-03-08T07:10:09;9.98;;;6.85;;
42094;SDS011;27753;55.724;37.612;2024-03-08T07:12:40;12.02;;;7.65;;
42094;SDS011;27753;55.724;37.612;2024-03-08T07:15:07;11.93;;;8.25;;
42094;SDS011;27753;55.724;37.612;2024-03-08T07:17:38;15.45;;;8.77;;
42094;SDS011;27753;55.724;37.612;2024-03-08T07:20:05;16.70;;;7.70;;
42094;SDS011;27753;55.724;37.612;2024-03-08T07:22:37;12.95;;;7.70;;
42094;SDS011;27753;55.724;37.612;2024-03-08T07:25:06;12.97;;;7.40;;
42094;SDS011;27753;55.724;37.612;2024-03-08T07:27:33;16.63;;;8.80;;
42094;SDS011;27753;55.724;37.612;2024-03-08T07:30:01;12.98;;;7.32;;
42094;SDS011;27753;55.724;37.612;2024-03-08T07:32:30;15.13;;;7.95;;
42094;SDS011;27753;55.724;37.612;2024-03-08T07:34:56;12.10;;;7.60;;
42094;SDS011;27753;55.724;37.612;2024-03-08T07:37:23;16.17;;;7.85;;
42094;SDS011;27753;55.724;37.612;2024-03-08T07:39:49;20.77;;;7.25;;
42094;SDS011;27753;55.724;37.612;2024-03-08T07:42:15;12.95;;;8.32;;
42094;SDS011;27753;55.724;37.612;2024-03-08T07:44:42;13.70;;;7.25;;
42094;SDS011;27753;55.724;37.612;2024-03-08T07:47:08;18.00;;;8.15;;
42094;SDS011;27753;55.724;37.612;2024-03-08T07:49:37;11.33;;;7.93;;
42094;SDS011;27753;55.724;37.612;2024-03-08T07:52:03;13.05;;;6.22;;
42094;SDS011;27753;55.724;37.612;2024-03-08T07:54:32;9.88;;;6.57;;
42094;SDS011;27753;55.724;37.612;2024-03-08T07:57:00;12.32;;;6.90;;
42094;SDS011;27753;55.724;37.612;2024-03-08T07:59:28;11.70;;;7.10;;
42094;SDS011;27753;55.724;37.612;2024-03-08T08:01:55;15.27;;;7.22;;
42094;SDS011;27753;55.724;37.612;2024-03-08T08:04:21;12.82;;;7.70;;
42094;SDS011;27753;55.724;37.612;2024-03-08T08:06:50;15.40;;;7.85;;
42094;SDS011;27753;55.724;37.612;2024-03-08T08:09:16;12.98;;;7.50;;
42094;SDS011;27753;55.724;37.612;2024-03-08T08:11:53;10.43;;;6.43;;
42094;SDS011;27753;55.724;37.612;2024-03-08T08:14:20;11.60;;;7.63;;
42094;SDS011;27753;55.724;37.612;2024-03-08T08:16:46;14.70;;;7.47;;
42094;SDS011;27753;55.724;37.612;2024-03-08T08:19:14;11.05;;;7.10;;
42094;SDS011;27753;55.724;37.612;2024-03-08T08:21:40;12.85;;;8.32;;
42094;SDS011;27753;55.724;37.612;2024-03-08T08:24:07;12.43;;;7.82;;
42094;SDS011;27753;55.724;37.612;2024-03-08T08:26:32;11.80;;;7.88;;
42094;SDS011;27753;55.724;37.612;2024-03-08T08:28:59;11.52;;;5.85;;
42094;SDS011;27753;55.724;37.612;2024-03-08T08:31:25;13.18;;;7.72;;
42094;SDS011;27753;55.724;37.612;2024-03-08T08:33:51;11.52;;;7.22;;
42094;SDS011;27753;55.724;37.612;2024-03-08T08:36:23;15.57;;;9.40;;
42094;SDS011;27753;55.724;37.612;2024-03-08T08:38:51;11.70;;;7.47;;
42094;SDS011;27753;55.724;37.612;2024-03-08T08:41:20;10.90;;;8.23;;
42094;SDS011;27753;55.724;37.612;2024-03-08T08:43:47;11.30;;;8.10;;
42094;SDS011;27753;55.724;37.612;2024-03-08T08:46:17;15.52;;;8.13;;
42094;SDS011;27753;55.724;37.612;2024-03-08T08:48:43;12.20;;;7.50;;
42094;SDS011;27753;55.724;37.612;2024-03-08T08:51:10;11.95;;;7.82;;
42094;SDS011;27753;55.724;37.612;2024-03-08T08:53:40;10.73;;;7.25;;
42094;SDS011;27753;55.724;37.612;2024-03-08T08:56:10;16.65;;;8.45;;
42094;SDS011;27753;55.724;37.612;2024-03-08T08:58:47;15.02;;;8.05;;
42094;SDS011;27753;55.724;37.612;2024-03-08T09:01:14;11.80;;;7.63;;
42094;SDS011;27753;55.724;37.612;2024-03-08T09:03:40;11.73;;;7.30;;
42094;SDS011;27753;55.724;37.612;2024-03-08T09:06:06;10.65;;;6.88;;
42094;SDS011;27753;55.724;37.612;2024-03-08T09:08:36;14.48;;;9.57;;
42094;SDS011;27753;55.724;37.612;2024-03-08T09:11:03;12.13;;;8.10;;
42094;SDS011;27753;55.724;37.612;2024-03-08T09:13:29;12.70;;;8.80;;
42094;SDS011;27753;55.724;37.612;2024-03-08T09:15:55;14.07;;;8.47;;
42094;SDS011;27753;55.724;37.612;2024-03-08T09:18:21;11.88;;;7.40;;
42094;SDS011;27753;55.724;37.612;2024-03-08T09:20:49;14.75;;;8.35;;
42094;SDS011;27753;55.724;37.612;2024-03-08T09:23:16;11.63;;;7.43;;
42094;SDS011;27753;55.724;37.612;2024-03-08T09:25:44;13.02;;;8.30;;
42094;SDS011;27753;55.724;37.612;2024-03-08T09:28:11;11.00;;;8.25;;
42094;SDS011;27753;55.724;37.612;2024-03-08T09:30:38;20.23;;;9.45;;
42094;SDS011;27753;55.724;37.612;2024-03-08T09:33:05;14.18;;;9.52;;
42094;SDS011;27753;55.724;37.612;2024-03-08T09:35:31;16.53;;;9.10;;
42094;SDS011;27753;55.724;37.612;2024-03-08T09:37:57;13.38;;;8.68;;
42094;SDS011;27753;55.724;37.612;2024-03-08T09:40:26;10.88;;;6.85;;
42094;SDS011;27753;55.724;37.612;2024-03-08T09:42:52;19.15;;;9.20;;
42094;SDS011;27753;55.724;37.612;2024-03-08T09:45:19;12.38;;;9.23;;
42094;SDS011;27753;55.724;37.612;2024-03-08T09:47:49;11.77;;;7.43;;
42094;SDS011;27753;55.724;37.612;2024-03-08T09:50:16;12.35;;;8.05;;
42094;SDS011;27753;55.724;37.612;2024-03-08T09:52:42;11.20;;;7.43;;
42094;SDS011;27753;55.724;37.612;2024-03-08T09:55:11;9.15;;;6.88;;
42094;SDS011;27753;55.724;37.612;2024-03-08T09:57:37;13.07;;;8.93;;
42094;SDS011;27753;55.724;37.612;2024-03-08T10:00:04;11.63;;;8.07;;
42094;SDS011;27753;55.724;37.612;2024-03-08T10:02:46;13.85;;;8.88;;
42094;SDS011;27753;55.724;37.612;2024-03-08T10:05:12;12.48;;;7.70;;
42094;SDS011;27753;55.724;37.612;2024-03-08T10:07:39;15.80;;;9.20;;
42094;SDS011;27753;55.724;37.612;2024-03-08T10:10:05;12.77;;;9.05;;
42094;SDS011;27753;55.724;37.612;2024-03-08T10:12:34;12.35;;;8.52;;
42094;SDS011;27753;55.724;37.612;2024-03-08T10:15:00;13.48;;;7.68;;
42094;SDS011;27753;55.724;37.612;2024-03-08T10:17:26;10.80;;;8.52;;
42094;SDS011;27753;55.724;37.612;2024-03-08T10:19:57;10.93;;;8.48;;
42094;SDS011;27753;55.724;37.612;2024-03-08T10:22:25;12.95;;;8.90;;
42094;SDS011;27753;55.724;37.612;2024-03-08T10:24:54;14.57;;;9.25;;
42094;SDS011;27753;55.724;37.612;2024-03-08T10:27:20;14.10;;;8.73;;
42094;SDS011;27753;55.724;37.612;2024-03-08T10:29:49;15.00;;;9.15;;
42094;SDS011;27753;55.724;37.612;2024-03-08T10:32:17;20.50;;;9.20;;
42094;SDS011;27753;55.724;37.612;2024-03-08T10:34:43;11.68;;;7.40;;
42094;SDS011;27753;55.724;37.612;2024-03-08T10:37:12;13.50;;;9.13;;
42094;SDS011;27753;55.724;37.612;2024-03-08T10:39:43;11.98;;;8.48;;
42094;SDS011;27753;55.724;37.612;2024-03-08T10:42:18;12.35;;;8.80;;
42094;SDS011;27753;55.724;37.612;2024-03-08T10:45:11;13.23;;;9.23;;
42094;SDS011;27753;55.724;37.612;2024-03-08T10:47:41;12.18;;;8.32;;
42094;SDS011;27753;55.724;37.612;2024-03-08T10:52:51;15.60;;;7.93;;
42094;SDS011;27753;55.724;37.612;2024-03-08T10:55:18;10.93;;;7.50;;
42094;SDS011;27753;55.724;37.612;2024-03-08T10:57:45;11.60;;;8.75;;
42094;SDS011;27753;55.724;37.612;2024-03-08T11:00:19;16.05;;;9.02;;
42094;SDS011;27753;55.724;37.612;2024-03-08T11:02:51;14.50;;;8.80;;
42094;SDS011;27753;55.724;37.612;2024-03-08T11:05:38;13.07;;;7.57;;
42094;SDS011;27753;55.724;37.612;2024-03-08T11:08:08;12.13;;;8.35;;
42094;SDS011;27753;55.724;37.612;2024-03-08T11:10:51;10.00;;;6.93;;
42094;SDS011;27753;55.724;37.612;2024-03-08T11:13:33;15.55;;;9.27;;
42094;SDS011;27753;55.724;37.612;2024-03-08T11:16:11;16.35;;;8.70;;
42094;SDS011;27753;55.724;37.612;2024-03-08T11:18:58;15.45;;;9.40;;
42094;SDS011;27753;55.724;37.612;2024-03-08T11:21:31;13.75;;;8.57;;
42094;SDS011;27753;55.724;37.612;2024-03-08T11:26:30;13.32;;;9.52;;
42094;SDS011;27753;55.724;37.612;2024-03-08T11:29:32;15.00;;;10.05;;
42094;SDS011;27753;55.724;37.612;2024-03-08T11:32:04;14.15;;;9.13;;
42094;SDS011;27753;55.724;37.612;2024-03-08T11:34:37;14.85;;;8.60;;
42094;SDS011;27753;55.724;37.612;2024-03-08T11:37:05;15.02;;;8.80;;
42094;SDS011;27753;55.724;37.612;2024-03-08T11:39:38;13.88;;;9.15;;
42094;SDS011;27753;55.724;37.612;2024-03-08T11:42:05;14.02;;;8.43;;
42094;SDS011;27753;55.724;37.612;2024-03-08T11:44:31;14.87;;;7.43;;
42094;SDS011;27753;55.724;37.612;2024-03-08T11:46:57;12.50;;;8.27;;
42094;SDS011;27753;55.724;37.612;2024-03-08T11:49:26;13.60;;;8.30;;
42094;SDS011;27753;55.724;37.612;2024-03-08T11:51:52;14.07;;;8.73;;
42094;SDS011;27753;55.724;37.612;2024-03-08T11:54:19;12.45;;;8.32;;
42094;SDS011;27753;55.724;37.612;2024-03-08T11:56:45;12.40;;;7.53;;
42094;SDS011;27753;55.724;37.612;2024-03-08T11:59:14;11.43;;;7.72;;
42094;SDS011;27753;55.724;37.612;2024-03-08T12:01:39;10.65;;;7.60;;
42094;SDS011;27753;55.724;37.612;2024-03-08T12:04:06;13.20;;;8.68;;
42094;SDS011;27753;55.724;37.612;2024-03-08T12:06:39;15.73;;;9.75;;
42094;SDS011;27753;55.724;37.612;2024-03-08T12:09:09;14.45;;;9.73;;
42094;SDS011;27753;55.724;37.612;2024-03-08T12:11:36;15.25;;;10.02;;
42094;SDS011;27753;55.724;37.612;2024-03-08T12:14:03;11.63;;;7.15;;
42094;SDS011;27753;55.724;37.612;2024-03-08T12:16:29;12.50;;;9.63;;
42094;SDS011;27753;55.724;37.612;2024-03-08T12:18:55;19.52;;;9.65;;
42094;SDS011;27753;55.724;37.612;2024-03-08T12:21:23;12.93;;;7.80;;
42094;SDS011;27753;55.724;37.612;2024-03-08T12:24:04;13.40;;;8.10;;
42094;SDS011;27753;55.724;37.612;2024-03-08T12:26:38;12.52;;;6.90;;
42094;SDS011;27753;55.724;37.612;2024-03-08T12:31:45;16.40;;;9.38;;
42094;SDS011;27753;55.724;37.612;2024-03-08T12:34:12;10.40;;;7.65;;
42094;SDS011;27753;55.724;37.612;2024-03-08T12:36:48;11.68;;;7.05;;
42094;SDS011;27753;55.724;37.612;2024-03-08T12:41:46;12.80;;;6.90;;
42094;SDS011;27753;55.724;37.612;2024-03-08T12:44:12;11.77;;;8.13;;
42094;SDS011;27753;55.724;37.612;2024-03-08T12:46:38;12.88;;;7.00;;
42094;SDS011;27753;55.724;37.612;2024-03-08T12:49:10;8.88;;;6.97;;
42094;SDS011;27753;55.724;37.612;2024-03-08T12:51:37;9.88;;;6.25;;
42094;SDS011;27753;55.724;37.612;2024-03-08T12:54:04;9.05;;;6.18;;
42094;SDS011;27753;55.724;37.612;2024-03-08T12:56:32;13.27;;;7.32;;
42094;SDS011;27753;55.724;37.612;2024-03-08T12:58:59;8.85;;;6.38;;
42094;SDS011;27753;55.724;37.612;2024-03-08T13:01:26;10.30;;;6.60;;
42094;SDS011;27753;55.724;37.612;2024-03-08T13:03:53;9.43;;;7.25;;
42094;SDS011;27753;55.724;37.612;2024-03-08T13:06:20;12.65;;;6.35;;
42094;SDS011;27753;55.724;37.612;2024-03-08T13:08:52;9.52;;;6.35;;
42094;SDS011;27753;55.724;37.612;2024-03-08T13:11:19;10.57;;;6.45;;
42094;SDS011;27753;55.724;37.612;2024-03-08T13:13:45;9.10;;;5.65;;
42094;SDS011;27753;55.724;37.612;2024-03-08T13:16:11;8.65;;;5.93;;
42094;SDS011;27753;55.724;37.612;2024-03-08T13:18:40;13.88;;;7.75;;
42094;SDS011;27753;55.724;37.612;2024-03-08T13:21:12;11.30;;;7.15;;
42094;SDS011;27753;55.724;37.612;2024-03-08T13:23:40;11.98;;;6.15;;
42094;SDS011;27753;55.724;37.612;2024-03-08T13:26:11;16.23;;;5.47;;
42094;SDS011;27753;55.724;37.612;2024-03-08T13:28:40;7.20;;;5.40;;
42094;SDS011;27753;55.724;37.612;2024-03-08T13:31:06;8.87;;;5.47;;
42094;SDS011;27753;55.724;37.612;2024-03-08T13:33:35;6.35;;;4.57;;
42094;SDS011;27753;55.724;37.612;2024-03-08T13:36:04;9.95;;;6.03;;
42094;SDS011;27753;55.724;37.612;2024-03-08T13:38:46;10.60;;;5.78;;
42094;SDS011;27753;55.724;37.612;2024-03-08T13:41:16;7.88;;;5.65;;
42094;SDS011;27753;55.724;37.612;2024-03-08T13:43:46;8.55;;;5.82;;
42094;SDS011;27753;55.724;37.612;2024-03-08T13:46:15;9.88;;;5.82;;
42094;SDS011;27753;55.724;37.612;2024-03-08T13:48:42;10.40;;;5.93;;
42094;SDS011;27753;55.724;37.612;2024-03-08T13:51:08;9.68;;;6.20;;
42094;SDS011;27753;55.724;37.612;2024-03-08T13:53:40;8.98;;;6.35;;
42094;SDS011;27753;55.724;37.612;2024-03-08T13:56:06;11.77;;;5.80;;
42094;SDS011;27753;55.724;37.612;2024-03-08T13:58:35;9.93;;;5.78;;
42094;SDS011;27753;55.724;37.612;2024-03-08T14:01:01;8.82;;;5.80;;
42094;SDS011;27753;55.724;37.612;2024-03-08T14:03:30;8.23;;;5.93;;
42094;SDS011;27753;55.724;37.612;2024-03-08T14:05:57;7.95;;;5.22;;
42094;SDS011;27753;55.724;37.612;2024-03-08T14:08:23;11.65;;;6.25;;
42094;SDS011;27753;55.724;37.612;2024-03-08T14:10:50;9.30;;;5.57;;
42094;SDS011;27753;55.724;37.612;2024-03-08T14:13:21;9.05;;;5.97;;
42094;SDS011;27753;55.724;37.612;2024-03-08T14:15:47;9.35;;;5.75;;
42094;SDS011;27753;55.724;37.612;2024-03-08T14:18:13;10.35;;;5.82;;
42094;SDS011;27753;55.724;37.612;2024-03-08T14:20:39;11.00;;;5.45;;
42094;SDS011;27753;55.724;37.612;2024-03-08T14:23:05;10.15;;;5.20;;
42094;SDS011;27753;55.724;37.612;2024-03-08T14:25:34;8.23;;;5.03;;
42094;SDS011;27753;55.724;37.612;2024-03-08T14:28:00;8.57;;;5.93;;
42094;SDS011;27753;55.724;37.612;2024-03-08T14:30:32;10.15;;;6.60;;
42094;SDS011;27753;55.724;37.612;2024-03-08T14:33:03;9.13;;;5.47;;
42094;SDS011;27753;55.724;37.612;2024-03-08T14:35:30;8.40;;;5.15;;
42094;SDS011;27753;55.724;37.612;2024-03-08T14:37:57;8.85;;;5.75;;
42094;SDS011;27753;55.724;37.612;2024-03-08T14:40:26;8.88;;;6.10;;
42094;SDS011;27753;55.724;37.612;2024-03-08T14:42:55;7.90;;;5.28;;
42094;SDS011;27753;55.724;37.612;2024-03-08T14:45:21;6.43;;;5.32;;
42094;SDS011;27753;55.724;37.612;2024-03-08T14:47:49;5.07;;;3.50;;
42094;SDS011;27753;55.724;37.612;2024-03-08T14:50:20;10.18;;;6.05;;
42094;SDS011;27753;55.724;37.612;2024-03-08T14:52:49;9.57;;;6.07;;